Time;durP1;ratioP1;P1;durP2;ratioP2;P2;SDS_P1;SDS_P2;PMS_P1;PMS_P2;Temp;Humidity;BMP_temperature;BMP_pressure;BME280_temperature;BME280_humidity;BME280_pressure;Samples;Min_cycle;Max_cycle;Signal;HPM_P1;HPM_P2
2023/06/19 00:00:15;;;;;;;5.25;4.00;;;;;;;21.22;100.00;100090.06;676485;29;1670;-56
2023/06/19 00:00:36;;;;;;;6.40;4.05;;;;;;;21.19;100.00;100084.94;678331;29;2030;-56
2023/06/19 00:00:56;;;;;;;6.07;4.17;;;;;;;21.18;100.00;100089.38;678174;29;4500;-56
2023/06/19 00:01:17;;;;;;;5.90;4.47;;;;;;;21.16;100.00;100085.13;677110;29;1096;-55
2023/06/19 00:01:37;;;;;;;5.73;4.30;;;;;;;21.14;100.00;100079.03;677276;29;1494;-56
2023/06/19 00:01:58;;;;;;;5.47;4.10;;;;;;;21.11;100.00;100085.38;678439;29;1219;-56
2023/06/19 00:02:19;;;;;;;5.15;3.88;;;;;;;21.12;100.00;100088.91;678099;29;1550;-56
2023/06/19 00:02:39;;;;;;;5.43;3.93;;;;;;;21.12;100.00;100084.44;677464;29;1080;-56
2023/06/19 00:03:00;;;;;;;5.38;3.95;;;;;;;21.13;100.00;100087.94;677303;29;1289;-56
2023/06/19 00:03:20;;;;;;;5.67;4.17;;;;;;;21.11;100.00;100082.72;676381;29;1455;-56
2023/06/19 00:03:41;;;;;;;5.55;4.20;;;;;;;21.11;100.00;100089.84;676983;29;4460;-56
2023/06/19 00:04:01;;;;;;;5.47;4.10;;;;;;;21.07;100.00;100084.72;676724;29;857;-56
2023/06/19 00:04:21;;;;;;;5.22;4.10;;;;;;;21.14;100.00;100087.00;676290;29;1535;-55
2023/06/19 00:04:42;;;;;;;5.20;4.10;;;;;;;21.17;100.00;100086.81;676825;29;1221;-57
2023/06/19 00:05:03;;;;;;;5.00;3.90;;;;;;;21.16;100.00;100085.97;677097;29;897;-56
2023/06/19 00:05:24;;;;;;;4.97;3.78;;;;;;;21.15;100.00;100083.41;675450;29;1220;-56
2023/06/19 00:05:45;;;;;;;5.80;4.05;;;;;;;21.11;100.00;100089.84;677160;29;1063;-56
2023/06/19 00:06:06;;;;;;;6.60;4.30;;;;;;;21.07;100.00;100084.72;675345;29;1654;-55
2023/06/19 00:06:26;;;;;;;5.75;4.38;;;;;;;21.06;100.00;100084.81;674655;29;2020;-56
2023/06/19 00:06:48;;;;;;;5.70;4.28;;;;;;;21.04;100.00;100082.22;671716;29;4891;-57
2023/06/19 00:07:08;;;;;;;5.30;4.00;;;;;;;21.01;100.00;100082.38;668102;29;1561;-56
2023/06/19 00:07:29;;;;;;;5.10;3.90;;;;;;;21.08;100.00;100078.44;671409;29;937;-56
2023/06/19 00:07:49;;;;;;;5.53;4.27;;;;;;;21.16;100.00;100085.13;670333;29;1091;-57
2023/06/19 00:08:09;;;;;;;5.38;4.15;;;;;;;21.15;100.00;100080.75;670713;29;1582;-56
2023/06/19 00:08:30;;;;;;;5.20;4.30;;;;;;;21.14;100.00;100076.38;674765;29;933;-56
2023/06/19 00:08:51;;;;;;;5.90;4.40;;;;;;;21.09;100.00;100076.66;676198;29;838;-56
2023/06/19 00:09:11;;;;;;;5.50;4.23;;;;;;;21.05;100.00;100077.78;675980;29;1659;-56
2023/06/19 00:09:32;;;;;;;5.10;4.00;;;;;;;21.08;100.00;100082.91;677505;29;937;-56
2023/06/19 00:09:53;;;;;;;5.20;4.10;;;;;;;21.13;100.00;100079.97;675528;29;4375;-55
2023/06/19 00:10:13;;;;;;;5.07;3.80;;;;;;;21.08;100.00;100081.09;674375;29;1736;-56
2023/06/19 00:10:34;;;;;;;5.07;3.77;;;;;;;21.08;100.00;100078.44;677180;29;1068;-56
2023/06/19 00:10:54;;;;;;;5.47;3.70;;;;;;;21.04;100.00;100079.56;676690;29;1053;-56
2023/06/19 00:11:15;;;;;;;5.43;4.03;;;;;;;21.01;100.00;100092.19;675940;29;1763;-56
2023/06/19 00:11:35;;;;;;;5.37;4.00;;;;;;;20.99;100.00;100078.09;677358;29;885;-56
2023/06/19 00:11:55;;;;;;;5.80;4.28;;;;;;;20.97;100.00;100086.16;677309;29;1017;-55
2023/06/19 00:12:16;;;;;;;5.30;4.07;;;;;;;20.94;100.00;100089.00;675209;29;1456;-56
2023/06/19 00:12:36;;;;;;;5.00;3.60;;;;;;;21.03;100.00;100093.81;674815;29;913;-57
2023/06/19 00:12:56;;;;;;;4.83;3.90;;;;;;;21.06;100.00;100090.13;674120;29;4460;-56
2023/06/19 00:13:18;;;;;;;5.17;4.10;;;;;;;20.99;100.00;100078.09;670605;29;1642;-56
2023/06/19 00:13:39;;;;;;;5.10;3.97;;;;;;;20.94;100.00;100086.34;672064;29;1224;-55
2023/06/19 00:14:00;;;;;;;5.25;4.10;;;;;;;20.92;100.00;100083.78;674767;29;1394;-56
2023/06/19 00:14:21;;;;;;;5.13;3.72;;;;;;;20.89;100.00;100091.06;673254;29;1495;-56
2023/06/19 00:14:42;;;;;;;5.55;4.00;;;;;;;20.86;100.00;100086.78;677268;29;818;-55
2023/06/19 00:15:03;;;;;;;6.32;4.30;;;;;;;20.83;100.00;100086.97;677552;29;833;-55
2023/06/19 00:15:23;;;;;;;5.80;4.47;;;;;;;20.82;100.00;100082.59;677713;29;1612;-56
2023/06/19 00:15:43;;;;;;;5.53;4.47;;;;;;;20.83;100.00;100094.09;678704;29;4381;-56
2023/06/19 00:16:04;;;;;;;5.20;4.00;;;;;;;20.82;100.00;100090.56;679283;29;1184;-56
2023/06/19 00:16:25;;;;;;;5.78;4.15;;;;;;;20.80;100.00;100089.78;674960;29;3146;-56
2023/06/19 00:16:45;;;;;;;5.22;4.10;;;;;;;20.80;100.00;100083.63;677389;29;1044;-56
2023/06/19 00:17:06;;;;;;;6.00;4.13;;;;;;;20.77;100.00;100086.44;677541;29;929;-56
2023/06/19 00:17:27;;;;;;;6.18;4.03;;;;;;;20.77;100.00;100083.78;676331;29;1307;-56
2023/06/19 00:17:48;;;;;;;5.38;4.13;;;;;;;20.75;100.00;100083.88;676367;29;949;-56
2023/06/19 00:18:09;;;;;;;5.32;4.05;;;;;;;20.70;100.00;100086.81;676004;29;901;-56
2023/06/19 00:18:30;;;;;;;5.40;4.07;;;;;;;20.70;100.00;100083.28;676422;29;974;-56
2023/06/19 00:18:51;;;;;;;5.47;4.10;;;;;;;20.71;100.00;100080.56;676813;29;4441;-56
2023/06/19 00:19:12;;;;;;;4.90;4.00;;;;;;;20.77;100.00;100086.44;675543;29;1599;-56
2023/06/19 00:19:35;;;;;;;5.20;4.07;;;;;;;20.78;100.00;100083.69;677547;29;875;-56
2023/06/19 00:19:56;;;;;;;5.43;4.13;;;;;;;20.77;100.00;100091.75;677403;29;1224;-56
2023/06/19 00:20:17;;;;;;;5.70;4.20;;;;;;;20.74;100.00;100088.34;676083;29;1558;-56
2023/06/19 00:20:39;;;;;;;5.43;4.18;;;;;;;20.70;100.00;100089.47;677125;29;809;-56
2023/06/19 00:20:59;;;;;;;5.35;4.10;;;;;;;20.70;100.00;100084.16;676760;29;790;-56
2023/06/19 00:21:19;;;;;;;5.47;4.03;;;;;;;20.69;100.00;100081.59;676229;29;1449;-56
2023/06/19 00:21:42;;;;;;;5.70;4.00;;;;;;;20.70;100.00;100084.16;676796;29;4562;-56
2023/06/19 00:22:03;;;;;;;5.40;3.95;;;;;;;20.67;100.00;100083.41;677289;29;1148;-56
2023/06/19 00:22:25;;;;;;;5.57;4.30;;;;;;;20.69;100.00;100082.44;675837;29;1560;-56
2023/06/19 00:22:51;;;;;;;5.63;4.10;;;;;;;20.69;100.00;100086.91;677264;29;941;-56
2023/06/19 00:23:13;;;;;;;5.78;4.15;;;;;;;20.65;100.00;100080.84;676118;29;1667;-58
2023/06/19 00:23:34;;;;;;;5.47;4.13;;;;;;;20.64;100.00;100080.94;676929;29;1032;-56
2023/06/19 00:23:55;;;;;;;5.60;4.07;;;;;;;20.62;100.00;100082.84;677456;29;881;-56
2023/06/19 00:24:15;;;;;;;5.38;4.30;;;;;;;20.63;100.00;100082.75;676147;29;1511;-56
2023/06/19 00:24:35;;;;;;;5.73;4.43;;;;;;;20.61;100.00;100084.63;676419;29;798;-56
2023/06/19 00:24:56;;;;;;;6.50;4.20;;;;;;;20.60;100.00;100082.91;676245;29;4399;-56
2023/06/19 00:25:16;;;;;;;5.40;4.00;;;;;;;20.57;100.00;100080.44;676379;29;1503;-56
2023/06/19 00:25:36;;;;;;;5.50;4.03;;;;;;;20.57;100.00;100080.44;677060;29;1333;-56
2023/06/19 00:25:57;;;;;;;5.25;4.15;;;;;;;20.55;100.00;100079.66;677157;29;825;-56
2023/06/19 00:26:17;;;;;;;5.27;4.10;;;;;;;20.55;100.00;100077.00;675732;29;976;-56
2023/06/19 00:26:38;;;;;;;5.53;4.20;;;;;;;20.53;100.00;100078.88;676982;29;1304;-56
2023/06/19 00:27:02;;;;;;;5.77;4.30;;;;;;;20.51;100.00;100086.09;676730;29;1671;-56
2023/06/19 00:27:24;;;;;;;5.22;4.20;;;;;;;20.50;100.00;100087.03;675118;29;1468;-56
2023/06/19 00:27:45;;;;;;;5.28;3.85;;;;;;;20.49;100.00;100086.19;673164;29;4630;-56
2023/06/19 00:28:11;;;;;;;5.40;4.00;;;;;;;20.49;100.00;100077.34;673603;29;853;-56
2023/06/19 00:28:31;;;;;;;5.50;4.03;;;;;;;20.49;100.00;100080.88;671785;29;2210;-56
2023/06/19 00:28:54;;;;;;;5.50;4.20;;;;;;;20.47;100.00;100080.09;671820;29;1302;-56
2023/06/19 00:29:16;;;;;;;5.65;4.07;;;;;;;20.47;100.00;100084.56;668039;29;1584;-56
2023/06/19 00:29:36;;;;;;;5.53;4.07;;;;;;;20.46;100.00;100086.31;669612;29;1414;-56
2023/06/19 00:30:01;;;;;;;5.40;4.10;;;;;;;20.44;100.00;100088.22;669736;29;991;-54
2023/06/19 00:30:22;;;;;;;5.55;4.40;;;;;;;20.44;100.00;100082.06;668728;29;1529;-56
2023/06/19 00:30:42;;;;;;;5.53;4.20;;;;;;;20.44;100.00;100085.56;669837;29;4658;-56
2023/06/19 00:31:02;;;;;;;5.53;3.88;;;;;;;20.43;100.00;100086.50;672477;29;1784;-55
2023/06/19 00:31:23;;;;;;;5.43;4.00;;;;;;;20.49;100.00;100080.88;673046;29;1627;-56
2023/06/19 00:31:44;;;;;;;5.43;4.22;;;;;;;20.51;100.00;100089.59;675296;29;1348;-56
2023/06/19 00:32:05;;;;;;;5.70;4.20;;;;;;;20.52;100.00;100090.44;675117;29;1033;-56
2023/06/19 00:32:25;;;;;;;5.75;4.22;;;;;;;20.51;100.00;100083.44;671522;29;1656;-56
2023/06/19 00:32:49;;;;;;;5.50;4.05;;;;;;;20.52;100.00;100079.81;678581;29;901;-56
2023/06/19 00:33:11;;;;;;;6.53;4.40;;;;;;;20.52;100.00;100085.13;677603;29;1474;-56
2023/06/19 00:33:31;;;;;;;6.57;4.43;;;;;;;20.55;100.00;100083.16;678107;29;1244;-56
2023/06/19 00:33:52;;;;;;;6.22;4.50;;;;;;;20.58;100.00;100080.34;676071;29;4334;-56
2023/06/19 00:34:12;;;;;;;5.72;4.35;;;;;;;20.58;100.00;100087.47;673341;29;1767;-56
2023/06/19 00:34:32;;;;;;;5.73;4.17;;;;;;;20.57;100.00;100078.66;673994;29;941;-56
2023/06/19 00:34:53;;;;;;;6.00;4.17;;;;;;;20.56;100.00;100086.66;674843;29;861;-56
2023/06/19 00:35:15;;;;;;;5.47;4.30;;;;;;;20.57;100.00;100083.97;670352;29;1721;-57
2023/06/19 00:35:35;;;;;;;6.90;4.22;;;;;;;20.56;100.00;100084.00;671695;29;925;-56
2023/06/19 00:35:56;;;;;;;6.10;4.07;;;;;;;20.56;100.00;100081.34;672373;29;1259;-56
2023/06/19 00:36:20;;;;;;;5.20;3.90;;;;;;;20.54;100.00;100086.75;673274;29;1656;-57
2023/06/19 00:36:41;;;;;;;5.53;4.43;;;;;;;20.54;100.00;100084.09;673816;29;4466;-56
2023/06/19 00:37:01;;;;;;;5.78;4.40;;;;;;;20.54;100.00;100083.25;674707;29;910;-55
2023/06/19 00:37:22;;;;;;;6.00;4.40;;;;;;;20.55;100.00;100090.28;675625;29;1511;-56
2023/06/19 00:37:45;;;;;;;5.63;4.32;;;;;;;20.55;100.00;100080.50;676868;29;1345;-56
2023/06/19 00:38:05;;;;;;;5.38;4.18;;;;;;;20.58;100.00;100090.13;677299;29;926;-56
2023/06/19 00:38:26;;;;;;;5.33;4.10;;;;;;;20.58;100.00;100090.13;675616;29;1677;-56
2023/06/19 00:38:50;;;;;;;5.20;4.07;;;;;;;20.57;100.00;100089.28;673873;29;5228;-56
2023/06/19 00:39:10;;;;;;;5.35;4.15;;;;;;;20.57;100.00;100081.31;673046;29;1584;-56
2023/06/19 00:39:31;;;;;;;5.60;4.00;;;;;;;20.57;100.00;100089.28;672067;29;1243;-56
2023/06/19 00:39:51;;;;;;;5.50;3.85;;;;;;;20.57;100.00;100083.09;669222;29;4463;-56
2023/06/19 00:40:31;;;;;;;5.83;4.10;;;;;;;20.58;100.00;100082.16;670832;29;1569;-56
2023/06/19 00:40:52;;;;;;;6.30;4.45;;;;;;;20.58;100.00;100088.31;674244;29;889;-56
2023/06/19 00:41:13;;;;;;;5.10;4.05;;;;;;;20.59;100.00;100089.19;673276;29;1975;-56
2023/06/19 00:41:36;;;;;;;5.03;3.92;;;;;;;20.58;100.00;100082.16;674266;29;1356;-56
2023/06/19 00:41:56;;;;;;;5.93;4.40;;;;;;;20.58;100.00;100090.97;674701;29;1280;-56
2023/06/19 00:42:17;;;;;;;6.22;4.57;;;;;;;20.57;100.00;100088.38;675861;29;1491;-56
2023/06/19 00:42:38;;;;;;;5.40;4.28;;;;;;;20.57;100.00;100089.28;676880;29;2097;-56
2023/06/19 00:42:59;;;;;;;5.40;4.10;;;;;;;20.56;100.00;100091.97;676410;29;4670;-56
2023/06/19 00:43:20;;;;;;;5.40;4.18;;;;;;;20.56;100.00;100089.31;675759;29;1640;-56
2023/06/19 00:43:40;;;;;;;6.10;4.63;;;;;;;20.56;100.00;100086.66;676909;29;1371;-56
2023/06/19 00:44:01;;;;;;;5.80;4.60;;;;;;;20.56;100.00;100091.97;676281;29;1042;-56
2023/06/19 00:44:22;;;;;;;9.63;4.40;;;;;;;20.55;100.00;100091.13;676145;29;1496;-56
2023/06/19 00:44:43;;;;;;;5.88;4.50;;;;;;;20.59;100.00;100095.34;674467;29;1231;-56
2023/06/19 00:45:04;;;;;;;5.83;4.20;;;;;;;20.63;100.00;100089.84;674140;29;901;-56
2023/06/19 00:45:25;;;;;;;5.57;4.25;;;;;;;20.61;100.00;100095.25;673655;29;1799;-56
2023/06/19 00:45:45;;;;;;;5.60;4.40;;;;;;;20.67;100.00;100094.03;673542;29;4622;-56
2023/06/19 00:46:06;;;;;;;5.30;4.10;;;;;;;20.63;100.00;100093.38;674429;29;914;-56
2023/06/19 00:46:27;;;;;;;5.33;4.23;;;;;;;20.60;100.00;100096.19;671074;29;1791;-55
2023/06/19 00:46:57;;;;;;;5.88;4.10;;;;;;;20.55;100.00;100093.78;674561;29;904;-56
2023/06/19 00:47:17;;;;;;;5.50;4.07;;;;;;;20.51;100.00;100096.72;673174;29;1556;-56
2023/06/19 00:47:38;;;;;;;5.43;4.13;;;;;;;20.47;100.00;100089.84;671595;29;1253;-56
2023/06/19 00:48:00;;;;;;;5.73;4.33;;;;;;;20.47;100.00;100100.47;669546;29;1127;-56
2023/06/19 00:48:20;;;;;;;5.88;4.43;;;;;;;20.45;100.00;100105.00;669543;29;1663;-56
2023/06/19 00:48:41;;;;;;;5.65;4.20;;;;;;;20.41;100.00;100094.56;670517;29;4406;-56
2023/06/19 00:49:01;;;;;;;5.47;4.17;;;;;;;20.41;100.00;100101.69;671491;29;1284;-55
2023/06/19 00:49:22;;;;;;;5.60;4.32;;;;;;;20.40;100.00;100100.78;668684;29;1247;-56
2023/06/19 00:49:42;;;;;;;5.60;4.50;;;;;;;20.41;100.00;100102.53;671826;29;799;-56
2023/06/19 00:50:03;;;;;;;5.50;4.35;;;;;;;20.40;100.00;100103.44;672028;29;1499;-56
2023/06/19 00:50:24;;;;;;;5.20;4.30;;;;;;;20.41;100.00;100105.19;670366;29;1511;-56
2023/06/19 00:50:44;;;;;;;5.10;4.10;;;;;;;20.40;100.00;100106.09;674450;29;991;-58
2023/06/19 00:51:05;;;;;;;5.90;4.35;;;;;;;20.39;100.00;100109.72;674759;29;933;-56
2023/06/19 00:51:25;;;;;;;5.80;4.20;;;;;;;20.39;100.00;100107.06;673107;29;1592;-56
2023/06/19 00:51:46;;;;;;;5.82;4.32;;;;;;;20.39;100.00;100101.75;674008;29;4368;-56
2023/06/19 00:52:08;;;;;;;5.53;4.30;;;;;;;20.38;100.00;100104.47;674127;29;1281;-56
2023/06/19 00:52:29;;;;;;;5.45;4.43;;;;;;;20.38;100.00;100110.66;671657;29;1658;-56
2023/06/19 00:52:50;;;;;;;5.45;4.40;;;;;;;20.38;100.00;100107.13;674689;29;1254;-56
2023/06/19 00:53:10;;;;;;;5.30;4.20;;;;;;;20.38;100.00;100105.34;673270;29;1710;-57
2023/06/19 00:53:33;;;;;;;5.97;4.38;;;;;;;20.37;100.00;100106.28;674241;29;807;-56
2023/06/19 00:53:53;;;;;;;6.00;4.70;;;;;;;20.36;100.00;100101.91;674927;29;992;-56
2023/06/19 00:54:15;;;;;;;5.77;4.40;;;;;;;20.35;100.00;100107.31;675811;29;1519;-56
2023/06/19 00:54:35;;;;;;;5.80;4.30;;;;;;;20.35;100.00;100108.19;672386;29;1277;-56
2023/06/19 00:54:56;;;;;;;5.77;4.40;;;;;;;20.33;100.00;100110.03;673985;29;4548;-57
2023/06/19 00:55:17;;;;;;;5.72;4.50;;;;;;;20.33;100.00;100104.72;670645;29;1485;-56
2023/06/19 00:55:38;;;;;;;5.88;4.60;;;;;;;20.32;100.00;100110.97;668969;29;1244;-56
2023/06/19 00:55:59;;;;;;;5.65;4.28;;;;;;;20.33;100.00;100112.69;668771;29;995;-56
2023/06/19 00:56:19;;;;;;;5.47;4.13;;;;;;;20.33;100.00;100111.84;671194;29;1584;-56
2023/06/19 00:56:41;;;;;;;5.72;4.10;;;;;;;20.33;100.00;100114.50;673211;29;1993;-56
2023/06/19 00:57:02;;;;;;;6.35;4.30;;;;;;;20.32;100.00;100113.63;675055;29;1280;-56
2023/06/19 00:57:22;;;;;;;5.43;4.13;;;;;;;20.31;100.00;100114.59;673234;29;1476;-56
2023/06/19 00:57:43;;;;;;;5.50;4.10;;;;;;;20.32;100.00;100110.97;671152;29;4748;-56
2023/06/19 00:58:04;;;;;;;5.80;4.10;;;;;;;20.32;100.00;100110.97;670307;29;1000;-56
2023/06/19 00:58:26;;;;;;;6.15;4.32;;;;;;;20.33;100.00;100111.84;671297;29;1497;-56
2023/06/19 00:58:46;;;;;;;5.78;4.70;;;;;;;20.34;100.00;100114.41;673330;29;794;-56
2023/06/19 00:59:15;;;;;;;5.30;4.30;;;;;;;20.33;100.00;100118.00;674356;29;894;-56
2023/06/19 00:59:38;;;;;;;5.43;4.50;;;;;;;20.34;100.00;100110.88;675835;29;2028;-56
2023/06/19 00:59:58;;;;;;;5.32;4.35;;;;;;;20.33;100.00;100115.34;676909;29;830;-57
2023/06/19 01:00:19;;;;;;;5.50;4.50;;;;;;;20.34;100.00;100119.72;672837;29;1524;-56
2023/06/19 01:00:39;;;;;;;5.30;4.60;;;;;;;20.35;100.00;100116.13;671085;29;4519;-56
2023/06/19 01:00:59;;;;;;;5.50;4.53;;;;;;;20.35;100.00;100116.13;675498;29;1327;-56
2023/06/19 01:01:21;;;;;;;5.67;4.70;;;;;;;20.36;100.00;100112.53;673521;29;1481;-56
2023/06/19 01:01:42;;;;;;;5.65;4.30;;;;;;;20.35;100.00;100116.13;674132;29;1221;-56
2023/06/19 01:02:02;;;;;;;6.03;4.30;;;;;;;20.38;100.00;100110.66;674073;29;1255;-56
2023/06/19 01:02:23;;;;;;;5.57;4.40;;;;;;;20.41;100.00;100117.59;674340;29;1431;-56
2023/06/19 01:02:43;;;;;;;5.77;4.50;;;;;;;20.38;100.00;100105.34;672635;29;1421;-56
2023/06/19 01:03:04;;;;;;;6.43;4.63;;;;;;;20.37;100.00;100113.41;673977;29;1171;-56
2023/06/19 01:03:26;;;;;;;6.57;4.40;;;;;;;20.37;100.00;100113.41;674852;29;1576;-56
2023/06/19 01:03:47;;;;;;;7.18;4.40;;;;;;;20.34;100.00;100111.75;674631;29;4360;-56
2023/06/19 01:04:07;;;;;;;6.32;4.50;;;;;;;20.32;100.00;100113.63;672460;29;1226;-58
2023/06/19 01:04:27;;;;;;;5.87;4.37;;;;;;;20.30;100.00;100110.22;673494;29;1555;-56
2023/06/19 01:04:51;;;;;;;6.30;4.43;;;;;;;20.30;100.00;100118.19;673020;29;1428;-56
2023/06/19 01:05:12;;;;;;;5.55;4.35;;;;;;;20.31;100.00;100117.25;671601;29;1575;-57
2023/06/19 01:05:33;;;;;;;5.73;4.43;;;;;;;20.31;100.00;100117.25;672070;29;1267;-56
2023/06/19 01:05:55;;;;;;;6.00;4.40;;;;;;;20.31;100.00;100111.06;672613;29;894;-56
2023/06/19 01:06:29;;;;;;;5.75;4.40;;;;;;;20.32;100.00;100110.13;669460;29;1398;-56
2023/06/19 01:06:58;;;;;;;5.93;4.40;;;;;;;20.32;100.00;100110.97;671489;29;4428;-56
2023/06/19 01:07:28;;;;;;;5.85;4.43;;;;;;;20.33;100.00;100118.00;674105;29;948;-56
2023/06/19 01:08:03;;;;;;;5.90;4.50;;;;;;;20.34;100.00;100118.84;676109;29;998;-56
2023/06/19 01:08:43;;;;;;;5.35;4.30;;;;;;;20.32;100.00;100113.63;677632;29;1467;-56
2023/06/19 01:09:10;;;;;;;5.47;4.30;;;;;;;20.32;100.00;100116.28;679410;29;889;-55
2023/06/19 01:09:49;;;;;;;5.72;4.72;;;;;;;20.31;100.00;100114.59;676608;29;1544;-55
2023/06/19 01:10:14;;;;;;;5.80;4.45;;;;;;;20.33;100.00;100117.16;666146;29;4781;-56
2023/06/19 01:10:41;;;;;;;5.90;4.50;;;;;;;20.33;100.00;100123.31;676525;29;1051;-56
2023/06/19 01:11:03;;;;;;;5.22;4.22;;;;;;;20.33;100.00;100118.00;677120;29;839;-56
2023/06/19 01:11:30;;;;;;;5.35;4.20;;;;;;;20.35;100.00;100117.91;673265;29;1745;-56
2023/06/19 01:11:56;;;;;;;6.07;4.57;;;;;;;20.37;100.00;100122.22;673927;29;1025;-55
2023/06/19 01:12:21;;;;;;;5.88;4.57;;;;;;;20.37;100.00;100116.06;672933;29;890;-56
2023/06/19 01:12:50;;;;;;;5.70;4.38;;;;;;;20.36;100.00;100119.63;673133;29;4597;-56
2023/06/19 01:13:22;;;;;;;6.03;4.50;;;;;;;20.44;100.00;100121.88;672759;29;1530;-57
2023/06/19 01:14:08;;;;;;;5.88;4.28;;;;;;;20.49;100.00;100122.47;675365;29;1311;-56
2023/06/19 01:14:41;;;;;;;5.72;4.50;;;;;;;20.44;100.00;100113.94;675733;29;1491;-56
2023/06/19 01:15:04;;;;;;;5.47;4.20;;;;;;;20.40;100.00;100122.03;675705;29;819;-56
2023/06/19 01:15:25;;;;;;;5.97;4.20;;;;;;;20.38;100.00;100112.44;675188;29;1504;-56
2023/06/19 01:15:47;;;;;;;6.20;4.57;;;;;;;20.36;100.00;100117.00;679359;29;4513;-56
2023/06/19 01:16:08;;;;;;;5.95;4.60;;;;;;;20.34;100.00;100119.72;679630;29;1023;-57
2023/06/19 01:16:31;;;;;;;5.68;4.38;;;;;;;20.33;100.00;100123.31;675120;29;1574;-56
2023/06/19 01:16:51;;;;;;;5.60;4.20;;;;;;;20.34;100.00;100118.84;674362;29;1029;-56
2023/06/19 01:17:12;;;;;;;5.17;4.30;;;;;;;20.32;100.00;100115.44;670862;29;1486;-56
2023/06/19 01:17:32;;;;;;;5.18;4.32;;;;;;;20.35;100.00;100115.25;671624;29;1203;-56
2023/06/19 01:17:56;;;;;;;5.37;4.30;;;;;;;20.30;100.00;100118.19;669326;29;1487;-56
2023/06/19 01:18:17;;;;;;;6.03;4.53;;;;;;;20.30;100.00;100119.94;669756;29;1724;-56
2023/06/19 01:18:38;;;;;;;6.45;4.35;;;;;;;20.28;100.00;100117.38;671652;29;1269;-56
2023/06/19 01:18:59;;;;;;;6.20;4.65;;;;;;;20.26;100.00;100113.97;670129;29;5530;-56
2023/06/19 01:19:23;;;;;;;5.32;4.20;;;;;;;20.26;100.00;100116.63;671555;29;1451;-56
2023/06/19 01:19:44;;;;;;;5.40;4.35;;;;;;;20.26;100.00;100121.94;671486;29;1309;-56
2023/06/19 01:20:06;;;;;;;5.30;4.43;;;;;;;20.25;100.00;100114.91;671205;29;1046;-55
2023/06/19 01:20:28;;;;;;;7.00;4.57;;;;;;;20.23;100.00;100120.31;669081;29;1564;-56
2023/06/19 01:20:49;;;;;;;5.55;4.20;;;;;;;20.24;100.00;100119.38;672551;29;854;-58
2023/06/19 01:21:15;;;;;;;5.30;4.28;;;;;;;20.24;100.00;100114.06;675748;29;921;-56
2023/06/19 01:21:35;;;;;;;5.68;4.50;;;;;;;20.31;100.00;100114.59;676707;29;1438;-56
2023/06/19 01:22:01;;;;;;;5.90;4.43;;;;;;;20.32;100.00;100120.75;673749;29;4464;-56
2023/06/19 01:22:29;;;;;;;5.75;4.32;;;;;;;20.32;100.00;100113.63;673293;29;1528;-56
2023/06/19 01:22:56;;;;;;;5.60;4.45;;;;;;;20.34;100.00;100114.41;674296;29;1347;-56
2023/06/19 01:23:16;;;;;;;6.15;4.80;;;;;;;20.45;100.00;100118.28;675229;29;1460;-57
2023/06/19 01:23:37;;;;;;;5.67;4.50;;;;;;;20.52;100.00;100111.69;674521;29;929;-56
2023/06/19 01:23:57;;;;;;;6.18;4.53;;;;;;;20.61;100.00;100108.53;676564;29;2820;-56
2023/06/19 01:24:17;;;;;;;5.73;4.43;;;;;;;20.53;100.00;100113.41;675229;29;1440;-56
2023/06/19 01:24:38;;;;;;;5.63;4.30;;;;;;;20.44;100.00;100117.44;676606;29;1129;-58
2023/06/19 01:24:58;;;;;;;6.13;4.63;;;;;;;20.41;100.00;100120.25;675626;29;4405;-58
2023/06/19 01:25:19;;;;;;;6.10;4.47;;;;;;;20.37;100.00;100113.41;670970;29;1482;-56
2023/06/19 01:25:39;;;;;;;5.90;4.43;;;;;;;20.35;100.00;100117.91;671738;29;1179;-56
2023/06/19 01:25:59;;;;;;;6.57;4.37;;;;;;;20.29;100.00;100113.81;671795;29;921;-56
2023/06/19 01:26:26;;;;;;;5.53;4.23;;;;;;;20.28;100.00;100114.72;670246;29;1446;-58
2023/06/19 01:26:47;;;;;;;6.80;4.82;;;;;;;20.27;100.00;100112.16;668640;29;1422;-56
2023/06/19 01:27:07;;;;;;;5.57;4.38;;;;;;;20.25;100.00;100112.25;669345;29;1295;-55
2023/06/19 01:27:29;;;;;;;5.27;4.40;;;;;;;20.19;100.00;100105.47;670606;29;1583;-56
2023/06/19 01:27:50;;;;;;;5.75;4.68;;;;;;;20.27;100.00;100113.03;667710;29;4881;-57
2023/06/19 01:28:12;;;;;;;6.32;4.47;;;;;;;20.31;100.00;100108.41;664346;29;1487;-57
2023/06/19 01:28:34;;;;;;;5.68;4.60;;;;;;;20.37;100.00;100103.63;665882;29;1357;-56
2023/06/19 01:28:55;;;;;;;5.32;4.30;;;;;;;20.32;100.00;100107.47;666942;29;915;-55
2023/06/19 01:29:18;;;;;;;5.47;4.22;;;;;;;20.27;100.00;100106.84;667621;29;1765;-58
2023/06/19 01:29:39;;;;;;;5.95;4.43;;;;;;;20.25;100.00;100104.28;671289;29;1257;-56
2023/06/19 01:30:02;;;;;;;5.63;4.70;;;;;;;20.39;100.00;100106.19;674894;29;1108;-56
2023/06/19 01:30:22;;;;;;;5.85;4.50;;;;;;;20.39;100.00;100106.19;675660;29;1818;-56
2023/06/19 01:30:43;;;;;;;6.10;4.63;;;;;;;20.35;100.00;100109.97;675893;29;4678;-56
2023/06/19 01:31:12;;;;;;;5.83;4.50;;;;;;;20.32;100.00;100104.81;676155;29;1363;-56
2023/06/19 01:31:38;;;;;;;6.57;4.50;;;;;;;20.26;100.00;100106.00;672986;29;1621;-55
2023/06/19 01:32:08;;;;;;;5.88;4.45;;;;;;;20.24;100.00;100107.88;673512;29;1420;-56
2023/06/19 01:32:56;;;;;;;6.75;4.57;;;;;;;20.17;100.00;100101.19;673104;29;1591;-56
2023/06/19 01:33:28;;;;;;;6.28;4.70;;;;;;;20.13;100.00;100112.91;673898;29;1483;-55
2023/06/19 01:33:51;;;;;;;6.68;4.75;;;;;;;20.11;100.00;100107.69;677468;29;4369;-56
2023/06/19 01:34:15;;;;;;;5.95;4.60;;;;;;;20.09;100.00;100109.59;675903;29;1594;-58
2023/06/19 01:34:37;;;;;;;5.93;4.60;;;;;;;20.07;100.00;100106.97;674081;29;1308;-56
2023/06/19 01:34:59;;;;;;;5.70;4.70;;;;;;;20.06;100.00;100107.94;674306;29;804;-56
2023/06/19 01:35:23;;;;;;;5.90;4.65;;;;;;;20.07;100.00;100112.28;670433;29;1449;-56
2023/06/19 01:35:47;;;;;;;5.68;4.63;;;;;;;20.07;100.00;100109.63;671717;29;882;-56
2023/06/19 01:36:09;;;;;;;6.47;4.82;;;;;;;20.13;100.00;100110.25;673273;29;2047;-56
2023/06/19 01:36:31;;;;;;;6.40;5.05;;;;;;;20.12;100.00;100103.22;667773;29;1463;-56
2023/06/19 01:36:56;;;;;;;6.30;4.90;;;;;;;20.12;100.00;100105.88;668905;29;4346;-56
2023/06/19 01:37:17;;;;;;;5.78;4.70;;;;;;;20.07;100.00;100108.78;670339;29;1505;-54
2023/06/19 01:37:39;;;;;;;5.30;4.40;;;;;;;20.05;100.00;100108.88;668589;29;1000;-56
2023/06/19 01:38:01;;;;;;;5.32;4.35;;;;;;;20.04;100.00;100112.47;669036;29;1265;-56
2023/06/19 01:38:25;;;;;;;5.35;4.47;;;;;;;20.03;100.00;100110.72;669722;29;1555;-56
2023/06/19 01:38:48;;;;;;;5.90;4.70;;;;;;;20.03;100.00;100113.38;672699;29;5022;-56
2023/06/19 01:39:10;;;;;;;5.85;4.40;;;;;;;20.03;100.00;100113.38;674589;29;1915;-56
2023/06/19 01:39:33;;;;;;;6.00;4.63;;;;;;;20.01;100.00;100112.63;672957;29;1292;-59
2023/06/19 01:39:56;;;;;;;6.18;4.65;;;;;;;20.07;100.00;100108.78;673552;29;4481;-56
2023/06/19 01:40:17;;;;;;;5.85;4.68;;;;;;;20.04;100.00;100107.16;672785;29;1465;-56
2023/06/19 01:40:40;;;;;;;5.95;4.82;;;;;;;20.05;100.00;100113.34;671583;29;952;-57
2023/06/19 01:41:01;;;;;;;6.10;4.60;;;;;;;20.03;100.00;100104.59;672045;29;1301;-56
2023/06/19 01:41:22;;;;;;;5.70;4.60;;;;;;;20.01;100.00;100115.28;669373;29;1633;-56
2023/06/19 01:41:44;;;;;;;5.53;4.30;;;;;;;19.99;100.00;100103.91;672030;29;894;-56
2023/06/19 01:42:06;;;;;;;5.53;4.50;;;;;;;19.96;100.00;100109.34;674355;29;1248;-56
2023/06/19 01:42:27;;;;;;;5.70;4.55;;;;;;;19.93;100.00;100109.53;673180;29;1978;-56
2023/06/19 01:42:48;;;;;;;5.95;4.70;;;;;;;19.89;100.00;100110.63;673569;29;4490;-56
2023/06/19 01:43:10;;;;;;;5.75;4.90;;;;;;;19.89;100.00;100115.91;674274;29;1402;-56
2023/06/19 01:43:31;;;;;;;6.10;4.88;;;;;;;19.88;100.00;100115.06;668816;29;1833;-56
2023/06/19 01:43:52;;;;;;;6.30;4.82;;;;;;;19.86;100.00;100110.78;671147;29;1205;-56
2023/06/19 01:44:15;;;;;;;5.77;4.67;;;;;;;19.88;100.00;100111.53;669710;29;1584;-57
2023/06/19 01:44:35;;;;;;;6.00;4.70;;;;;;;19.98;100.00;100114.56;664717;29;903;-56